Time;durP1;ratioP1;P1;durP2;ratioP2;P2;SDS_P1;SDS_P2;PMS_P1;PMS_P2;Temp;Humidity;BMP_temperature;BMP_pressure;BME280_temperature;BME280_humidity;BME280_pressure;Samples;Min_cycle;Max_cycle;Signal;HPM_P1;HPM_P2
2023/01/29 00:00:33;;;;;;;3.92;2.50;;;;;;;11.30;100.00;101144.25;2086448;28;20045;-76
2023/01/29 00:01:56;;;;;;;4.53;2.58;;;;;;;11.28;100.00;101154.81;2086500;28;20052;-76
2023/01/29 00:03:17;;;;;;;5.57;2.30;;;;;;;11.26;100.00;101151.25;2086313;28;20053;-76
2023/01/29 00:04:39;;;;;;;5.30;2.15;;;;;;;11.24;100.00;101147.69;2087070;28;20037;-76
2023/01/29 00:06:06;;;;;;;4.30;1.73;;;;;;;11.27;100.00;101146.84;2074090;28;20132;-77
2023/01/29 00:07:28;;;;;;;4.07;1.90;;;;;;;11.27;100.00;101146.84;2094015;28;20053;-77
2023/01/29 00:08:51;;;;;;;2.72;1.58;;;;;;;11.29;100.00;101153.06;2089789;28;20547;-77
2023/01/29 00:10:13;;;;;;;2.88;1.48;;;;;;;11.31;100.00;101159.25;2086192;28;20037;-77
2023/01/29 00:11:36;;;;;;;3.58;1.77;;;;;;;11.32;100.00;101158.41;2086519;28;20560;-77
2023/01/29 00:12:58;;;;;;;2.88;1.95;;;;;;;11.33;100.00;101155.78;2087198;28;20131;-77
2023/01/29 00:14:19;;;;;;;3.92;1.50;;;;;;;11.33;100.00;101149.63;2087443;28;20041;-77
2023/01/29 00:15:42;;;;;;;3.75;2.05;;;;;;;11.33;100.00;101146.97;2086378;28;20135;-77
2023/01/29 00:17:04;;;;;;;3.38;1.52;;;;;;;11.35;100.00;101150.53;2086620;28;20045;-77
2023/01/29 00:18:26;;;;;;;4.40;2.28;;;;;;;11.35;100.00;101153.19;2083070;28;20086;-77
2023/01/29 00:19:48;;;;;;;3.47;1.95;;;;;;;11.35;100.00;101162.00;2079167;28;20058;-75
2023/01/29 00:21:13;;;;;;;5.70;3.92;;;;;;;11.35;100.00;101154.06;2088851;28;20037;-77
2023/01/29 00:22:35;;;;;;;14.07;12.52;;;;;;;11.32;100.00;101156.66;2090252;28;20156;-76
2023/01/29 00:23:58;;;;;;;33.25;30.33;;;;;;;11.28;100.00;101159.22;2089376;28;20044;-76
2023/01/29 00:25:19;;;;;;;14.43;11.80;;;;;;;11.24;100.00;101162.63;2087004;28;20048;-76
2023/01/29 00:26:42;;;;;;;8.10;6.57;;;;;;;11.21;100.00;101168.78;2083050;28;20472;-75
2023/01/29 00:28:03;;;;;;;4.68;2.88;;;;;;;11.22;100.00;101164.38;2070812;28;20049;-75
2023/01/29 00:29:25;;;;;;;2.60;2.13;;;;;;;11.23;100.00;101163.50;2083191;28;20053;-77
2023/01/29 00:30:49;;;;;;;3.25;1.80;;;;;;;11.23;100.00;101169.66;2085746;28;20182;-75
2023/01/29 00:32:12;;;;;;;2.20;1.65;;;;;;;11.24;100.00;101167.91;2079135;28;20043;-75
2023/01/29 00:33:35;;;;;;;2.33;1.65;;;;;;;11.24;100.00;101167.91;2085814;28;20049;-77
2023/01/29 00:34:56;;;;;;;2.20;1.42;;;;;;;11.23;100.00;101164.38;2085831;28;20048;-75
2023/01/29 00:36:21;;;;;;;2.63;1.75;;;;;;;11.25;100.00;101164.44;2081830;28;20045;-76
2023/01/29 00:37:42;;;;;;;2.25;1.67;;;;;;;11.24;100.00;101165.28;2070953;28;20114;-75
2023/01/29 00:39:09;;;;;;;2.50;1.60;;;;;;;11.23;100.00;101163.50;2084454;28;20141;-76
2023/01/29 00:44:56;;;;;;;19.98;2.10;;;;;;;11.18;100.00;101166.94;2081510;28;20087;-76
2023/01/29 00:45:35;;;;;;;2.75;1.60;;;;;;;11.12;100.00;101158.00;2080750;28;20760;-76
2023/01/29 00:46:57;;;;;;;4.25;1.67;;;;;;;11.11;100.00;101159.75;2083825;28;20052;-76
2023/01/29 00:48:20;;;;;;;2.70;1.92;;;;;;;11.12;100.00;101158.00;2073200;28;20088;-76
2023/01/29 00:49:42;;;;;;;4.65;1.73;;;;;;;11.11;100.00;101157.13;2075709;28;20107;-75
2023/01/29 00:51:05;;;;;;;2.00;1.55;;;;;;;11.11;100.00;101149.19;2078738;28;20572;-75
2023/01/29 00:52:28;;;;;;;2.13;1.40;;;;;;;11.12;100.00;101156.25;2070367;28;20100;-75
2023/01/29 00:53:50;;;;;;;3.50;1.63;;;;;;;11.10;100.00;101155.34;2078015;28;20217;-76
2023/01/29 00:55:13;;;;;;;2.67;2.00;;;;;;;11.08;100.00;101153.53;2078799;28;20041;-76
2023/01/29 00:56:37;;;;;;;5.38;2.97;;;;;;;11.07;100.00;101151.75;2077693;28;20061;-77
2023/01/29 00:57:59;;;;;;;4.10;2.92;;;;;;;11.07;100.00;101155.28;2078580;28;20080;-76
2023/01/29 00:59:20;;;;;;;3.50;2.35;;;;;;;11.09;100.00;101147.41;2078161;28;20061;-76
2023/01/29 01:00:42;;;;;;;7.28;4.70;;;;;;;11.08;100.00;101151.78;2078589;28;20461;-76
2023/01/29 01:03:43;;;;;;;5.78;4.70;;;;;;;11.07;100.00;101152.66;2081022;28;20042;-76
2023/01/29 01:05:09;;;;;;;5.38;4.10;;;;;;;11.08;100.00;101154.44;2078772;28;20053;-75
2023/01/29 01:06:30;;;;;;;4.40;3.10;;;;;;;11.09;100.00;101148.25;2081554;28;20049;-76
2023/01/29 01:07:56;;;;;;;4.07;2.88;;;;;;;11.12;100.00;101150.97;2086775;28;20051;-75
2023/01/29 01:10:59;;;;;;;2.80;2.42;;;;;;;11.13;100.00;101149.22;2097325;28;20056;-76
2023/01/29 01:12:22;;;;;;;3.72;2.40;;;;;;;11.13;100.00;101144.84;2097348;28;20432;-76
2023/01/29 01:13:44;;;;;;;2.80;2.03;;;;;;;11.14;100.00;101145.72;2078943;28;20057;-77
2023/01/29 01:15:06;;;;;;;2.90;2.08;;;;;;;11.14;100.00;101140.44;2078124;28;20042;-76
2023/01/29 01:16:28;;;;;;;3.42;2.28;;;;;;;11.14;100.00;101141.34;2081016;28;20081;-75
2023/01/29 01:17:53;;;;;;;3.03;1.80;;;;;;;11.13;100.00;101139.56;2089484;28;20060;-76
2023/01/29 01:19:16;;;;;;;3.50;1.85;;;;;;;11.13;100.00;101143.94;2080528;28;20379;-75
2023/01/29 01:20:38;;;;;;;4.15;2.00;;;;;;;11.13;100.00;101146.59;2087461;28;20044;-77
2023/01/29 01:22:00;;;;;;;;;;;;;;;11.09;100.00;101153.53;2098161;28;20052;-76
2023/01/29 01:23:23;;;;;;;4.80;2.10;;;;;;;11.11;100.00;101154.47;2093685;28;19924;-76
2023/01/29 01:24:45;;;;;;;2.10;1.63;;;;;;;11.15;100.00;101150.16;2088380;28;20098;-75
2023/01/29 01:26:10;;;;;;;4.70;2.78;;;;;;;11.17;100.00;101149.31;2072338;28;20088;-75
2023/01/29 01:27:33;;;;;;;4.00;1.85;;;;;;;11.18;100.00;101153.75;2086159;28;20036;-76
2023/01/29 01:28:55;;;;;;;3.10;1.80;;;;;;;11.19;100.00;101144.97;2089252;28;20045;-77
2023/01/29 01:30:18;;;;;;;2.53;1.80;;;;;;;11.19;100.00;101147.59;2083233;28;20051;-76
2023/01/29 01:31:40;;;;;;;3.03;1.40;;;;;;;11.21;100.00;101145.00;2079713;28;20107;-76
2023/01/29 01:33:01;;;;;;;4.00;1.98;;;;;;;11.22;100.00;101146.78;2078618;28;20064;-76
2023/01/29 01:34:25;;;;;;;3.40;1.60;;;;;;;11.23;100.00;101135.31;2080455;28;20071;-76
2023/01/29 01:35:48;;;;;;;3.80;1.88;;;;;;;11.23;100.00;101131.78;2085814;28;20037;-76
2023/01/29 01:37:09;;;;;;;2.45;1.60;;;;;;;11.22;100.00;101144.13;2086847;28;20455;-75
2023/01/29 01:38:33;;;;;;;2.63;1.70;;;;;;;11.22;100.00;101130.03;2090910;28;20041;-76
2023/01/29 01:39:56;;;;;;;4.65;1.77;;;;;;;11.22;100.00;101132.69;2084957;28;20519;-76
2023/01/29 01:41:21;;;;;;;2.42;1.80;;;;;;;11.24;100.00;101130.94;2077431;28;20497;-77
2023/01/29 01:42:43;;;;;;;4.93;2.20;;;;;;;11.23;100.00;101126.50;2092952;28;20428;-77
2023/01/29 01:44:06;;;;;;;3.97;2.00;;;;;;;11.22;100.00;101125.63;2085979;28;20061;-75
2023/01/29 01:45:31;;;;;;;3.38;1.70;;;;;;;11.21;100.00;101126.50;2075279;28;20080;-77
2023/01/29 01:46:52;;;;;;;2.35;1.63;;;;;;;11.19;100.00;101123.81;2079843;28;20079;-77
2023/01/29 01:48:19;;;;;;;3.28;1.70;;;;;;;11.18;100.00;101132.59;2072226;28;20049;-76
2023/01/29 01:49:41;;;;;;;5.47;1.90;;;;;;;11.17;100.00;101137.84;2076241;28;20508;-77
2023/01/29 01:51:06;;;;;;;4.07;1.80;;;;;;;11.18;100.00;101137.00;2082034;28;20048;-75
2023/01/29 01:52:30;;;;;;;5.88;2.50;;;;;;;11.19;100.00;101139.66;2078272;28;20069;-76
2023/01/29 01:54:01;;;;;;;6.93;3.13;;;;;;;11.21;100.00;101144.09;2084452;28;20048;-75
2023/01/29 01:55:27;;;;;;;6.13;3.05;;;;;;;11.21;100.00;101149.38;2095665;28;20587;-76
2023/01/29 01:56:54;;;;;;;4.47;2.88;;;;;;;11.22;100.00;101149.41;2087660;28;20053;-75
2023/01/29 01:58:21;;;;;;;6.13;2.67;;;;;;;11.22;100.00;101148.53;2087121;28;20479;-76
2023/01/29 01:59:49;;;;;;;6.55;2.25;;;;;;;11.22;100.00;101143.25;2072565;28;20033;-76
2023/01/29 02:01:12;;;;;;;2.78;1.60;;;;;;;11.21;100.00;101152.03;2070610;28;20054;-76
2023/01/29 02:09:36;;;;;;;3.88;2.15;;;;;;;11.07;100.00;101144.72;2088381;28;20080;-76
2023/01/29 02:10:58;;;;;;;3.42;2.03;;;;;;;11.07;100.00;101157.94;2080498;28;20049;-76
2023/01/29 02:12:21;;;;;;;6.53;2.50;;;;;;;11.08;100.00;101154.44;2083448;28;20073;-77
2023/01/29 02:13:44;;;;;;;4.50;2.25;;;;;;;11.10;100.00;101159.72;2086514;28;20067;-77
2023/01/29 02:15:08;;;;;;;3.30;2.03;;;;;;;11.11;100.00;101159.75;2080256;28;20585;-77
2023/01/29 02:16:31;;;;;;;3.75;1.80;;;;;;;11.14;100.00;101158.94;2078118;28;20045;-76
2023/01/29 02:17:52;;;;;;;3.63;1.83;;;;;;;11.15;100.00;101163.38;2073548;28;20045;-76
2023/01/29 02:19:22;;;;;;;5.00;1.77;;;;;;;11.16;100.00;101152.81;2075080;28;20057;-76
2023/01/29 02:20:48;;;;;;;5.43;1.75;;;;;;;11.14;100.00;101165.13;2077544;28;20029;-76
2023/01/29 02:22:30;;;;;;;4.75;1.90;;;;;;;11.13;100.00;101157.16;2084760;28;20172;-76
2023/01/29 02:24:06;;;;;;;3.70;1.75;;;;;;;11.10;100.00;101147.41;2086942;28;20049;-77
2023/01/29 02:25:48;;;;;;;6.10;2.30;;;;;;;11.08;100.00;101150.91;2080475;28;20048;-76
2023/01/29 02:27:15;;;;;;;2.70;1.60;;;;;;;11.03;100.00;101150.78;2088496;28;20052;-76
2023/01/29 02:28:47;;;;;;;3.00;1.73;;;;;;;11.01;100.00;101146.34;2083435;28;20290;-76
2023/01/29 02:30:17;;;;;;;3.88;2.03;;;;;;;10.98;100.00;101143.63;2086174;28;20056;-76
2023/01/29 02:31:44;;;;;;;3.78;1.80;;;;;;;10.95;100.00;101149.78;2071349;28;20042;-76
2023/01/29 02:33:14;;;;;;;3.10;1.73;;;;;;;10.93;100.00;101148.84;2073981;28;20045;-76
2023/01/29 02:36:35;;;;;;;6.25;1.92;;;;;;;10.90;100.00;101146.13;2093621;28;20055;-76
2023/01/29 02:38:11;;;;;;;2.40;1.88;;;;;;;10.88;100.00;101145.22;2086935;28;20041;-75
2023/01/29 02:39:37;;;;;;;5.22;1.75;;;;;;;10.88;100.00;101136.41;2087915;28;20154;-76
2023/01/29 02:41:05;;;;;;;4.43;1.88;;;;;;;10.87;100.00;101140.78;2077074;28;20046;-75
2023/01/29 02:42:31;;;;;;;3.65;1.75;;;;;;;10.87;100.00;101142.53;2084671;28;20074;-76
2023/01/29 02:44:04;;;;;;;4.65;1.73;;;;;;;10.86;100.00;101133.72;2072321;28;20140;-76
2023/01/29 02:45:33;;;;;;;4.53;1.65;;;;;;;10.84;100.00;101126.63;2071167;28;20049;-75
2023/01/29 02:47:01;;;;;;;3.63;1.80;;;;;;;10.82;100.00;101123.97;2079338;28;20049;-76
2023/01/29 02:48:29;;;;;;;4.63;1.98;;;;;;;10.78;100.00;101123.00;2081724;28;20143;-77
2023/01/29 02:50:01;;;;;;;3.75;1.70;;;;;;;10.76;100.00;101122.06;2092758;28;20056;-78
2023/01/29 02:51:29;;;;;;;4.23;1.90;;;;;;;10.73;100.00;101119.38;2096371;28;20139;-76
2023/01/29 02:52:58;;;;;;;3.53;1.70;;;;;;;10.70;100.00;101121.94;2094893;28;21041;-77
2023/01/29 02:54:25;;;;;;;3.75;2.13;;;;;;;10.66;100.00;101122.75;2086677;28;20048;-76
2023/01/29 02:55:52;;;;;;;3.70;2.45;;;;;;;10.66;100.00;101119.22;2083202;28;20053;-76
2023/01/29 02:57:19;;;;;;;9.50;5.38;;;;;;;10.68;100.00;101122.78;2076322;28;20588;-76
2023/01/29 02:58:42;;;;;;;11.48;5.60;;;;;;;10.68;100.00;101128.97;2084093;28;20052;-76
2023/01/29 03:00:12;;;;;;;10.25;7.53;;;;;;;10.66;100.00;101120.09;2080560;28;20444;-76
2023/01/29 03:01:39;;;;;;;8.90;6.72;;;;;;;10.64;100.00;101115.66;2086841;28;20076;-76
2023/01/29 03:03:08;;;;;;;5.25;3.17;;;;;;;10.64;100.00;101120.94;2086514;28;20059;-76
2023/01/29 03:04:35;;;;;;;4.82;3.00;;;;;;;10.61;100.00;101116.50;2086518;28;20064;-77
2023/01/29 03:06:05;;;;;;;6.60;3.55;;;;;;;10.58;100.00;101119.06;2086058;28;20080;-76
2023/01/29 03:07:43;;;;;;;7.57;3.90;;;;;;;10.55;100.00;101121.66;2086719;28;20156;-76
2023/01/29 03:09:16;;;;;;;4.50;2.10;;;;;;;10.51;100.00;101116.25;2079143;28;20064;-75
2023/01/29 03:10:48;;;;;;;5.68;3.13;;;;;;;10.47;100.00;101122.31;2085307;28;20044;-76
2023/01/29 03:12:27;;;;;;;5.60;2.75;;;;;;;10.46;100.00;101125.81;2086526;28;20092;-76
2023/01/29 03:13:55;;;;;;;6.18;3.30;;;;;;;10.43;100.00;101128.41;2079780;28;20641;-76
2023/01/29 03:15:26;;;;;;;5.13;2.70;;;;;;;10.41;100.00;101130.13;2078398;28;20077;-76
2023/01/29 03:17:09;;;;;;;4.82;2.70;;;;;;;10.37;100.00;101134.44;2072005;28;20057;-76
2023/01/29 03:18:40;;;;;;;5.80;2.72;;;;;;;10.37;100.00;101127.38;2083371;28;20164;-75
2023/01/29 03:20:07;;;;;;;7.88;2.90;;;;;;;10.38;100.00;101125.66;2071529;28;20517;-77
2023/01/29 03:21:52;;;;;;;5.25;2.78;;;;;;;10.39;100.00;101128.31;2084476;28;20156;-77
2023/01/29 03:23:22;;;;;;;8.30;3.00;;;;;;;10.39;100.00;101132.72;2071990;28;20053;-77
2023/01/29 03:32:06;;;;;;;8.75;4.72;;;;;;;10.30;100.00;101146.63;2080168;28;20037;-76
2023/01/29 03:33:33;;;;;;;13.68;12.25;;;;;;;10.29;100.00;101144.81;2086410;28;20052;-76
2023/01/29 03:35:02;;;;;;;12.90;9.02;;;;;;;10.26;100.00;101144.75;2085793;28;20049;-76
2023/01/29 03:36:36;;;;;;;10.93;8.93;;;;;;;10.24;100.00;101149.09;2086587;28;20527;-76
2023/01/29 03:38:00;;;;;;;14.10;10.93;;;;;;;10.23;100.00;101143.78;2087489;28;20469;-77
2023/01/29 03:39:27;;;;;;;9.35;6.93;;;;;;;10.23;100.00;101142.06;2085369;28;20051;-77
2023/01/29 03:40:53;;;;;;;9.32;5.88;;;;;;;10.23;100.00;101143.78;2085756;28;20043;-76
2023/01/29 03:42:22;;;;;;;11.25;6.35;;;;;;;10.22;100.00;101140.25;2077977;28;20144;-77
2023/01/29 03:43:50;;;;;;;7.93;5.07;;;;;;;10.23;100.00;101143.78;2085485;28;20049;-76
2023/01/29 03:45:20;;;;;;;8.15;5.18;;;;;;;10.23;100.00;101138.53;2078782;28;20870;-77
2023/01/29 03:46:53;;;;;;;7.50;4.93;;;;;;;10.21;100.00;101143.75;2086725;28;20037;-76
2023/01/29 03:48:24;;;;;;;7.72;5.00;;;;;;;10.18;100.00;101140.13;2094830;28;20056;-76
2023/01/29 03:49:56;;;;;;;7.35;4.93;;;;;;;10.19;100.00;101148.09;2076325;28;20539;-76
2023/01/29 03:51:27;;;;;;;12.90;6.22;;;;;;;10.22;100.00;101153.44;2077843;28;20083;-76
2023/01/29 03:52:55;;;;;;;71.15;40.47;;;;;;;10.23;100.00;101152.59;2085183;28;20037;-77
2023/01/29 03:54:26;;;;;;;32.70;27.90;;;;;;;10.25;100.00;101152.63;2094487;28;20083;-76
2023/01/29 03:55:57;;;;;;;22.80;16.00;;;;;;;10.26;100.00;101159.69;2079688;28;20048;-76
2023/01/29 03:57:28;;;;;;;10.55;7.22;;;;;;;10.26;100.00;101172.88;2085459;28;20637;-77
2023/01/29 03:58:59;;;;;;;10.52;6.68;;;;;;;10.22;100.00;101174.56;2078518;28;20037;-76
2023/01/29 04:00:38;;;;;;;11.02;6.68;;;;;;;10.18;100.00;101180.59;2087923;28;20041;-76
2023/01/29 04:02:06;;;;;;;10.98;6.88;;;;;;;10.16;100.00;101178.75;2081068;28;20055;-76
2023/01/29 04:03:33;;;;;;;10.48;7.15;;;;;;;10.13;100.00;101179.56;2069992;28;20046;-76
2023/01/29 04:05:00;;;;;;;9.60;5.82;;;;;;;10.12;100.00;101169.88;2076022;28;20059;-76
2023/01/29 04:06:25;;;;;;;8.32;5.93;;;;;;;10.09;100.00;101172.44;2069780;28;20057;-76
2023/01/29 04:08:07;;;;;;;6.07;4.18;;;;;;;10.04;100.00;101174.09;2079109;28;20045;-76
2023/01/29 04:09:34;;;;;;;9.15;5.72;;;;;;;10.01;100.00;101176.66;2079678;28;20524;-76
2023/01/29 04:11:02;;;;;;;6.25;3.90;;;;;;;9.98;100.00;101177.44;2079741;28;20095;-76
2023/01/29 04:12:29;;;;;;;7.18;3.15;;;;;;;9.97;100.00;101167.78;2080149;28;20049;-74
2023/01/29 04:13:51;;;;;;;6.57;2.80;;;;;;;9.98;100.00;101173.91;2085263;28;20070;-76
2023/01/29 04:15:17;;;;;;;4.82;2.30;;;;;;;10.00;100.00;101169.59;2084928;28;20106;-76
2023/01/29 04:16:47;;;;;;;5.05;2.25;;;;;;;10.02;100.00;101181.06;2069464;28;20096;-76
2023/01/29 04:18:22;;;;;;;5.90;2.30;;;;;;;10.02;100.00;101165.25;2078876;28;20081;-76
2023/01/29 04:20:00;;;;;;;6.05;2.80;;;;;;;10.01;100.00;101174.00;2087076;28;20041;-76
2023/01/29 04:21:23;;;;;;;7.22;3.38;;;;;;;10.03;100.00;101176.69;2086526;28;20056;-76
2023/01/29 04:22:46;;;;;;;7.30;3.42;;;;;;;10.00;100.00;101173.13;2076366;28;20140;-76
2023/01/29 04:24:10;;;;;;;9.93;6.13;;;;;;;9.98;100.00;101173.91;2077135;28;20041;-76
2023/01/29 04:25:43;;;;;;;10.13;6.07;;;;;;;9.96;100.00;101176.53;2072641;28;20048;-76
2023/01/29 04:27:20;;;;;;;9.88;6.18;;;;;;;9.96;100.00;101181.81;2070154;28;20453;-76
2023/01/29 04:28:59;;;;;;;11.52;6.20;;;;;;;9.95;100.00;101171.22;2076303;28;20083;-76
2023/01/29 04:30:36;;;;;;;12.32;5.68;;;;;;;9.92;100.00;101173.75;2079647;28;20080;-75
2023/01/29 04:32:08;;;;;;;14.50;7.25;;;;;;;9.92;100.00;101165.84;2079924;28;20409;-76
2023/01/29 04:33:39;;;;;;;8.48;5.13;;;;;;;9.91;100.00;101172.00;2082578;28;20037;-75
2023/01/29 04:35:10;;;;;;;5.38;2.72;;;;;;;9.92;100.00;101169.38;2091572;28;20536;-76
2023/01/29 04:36:38;;;;;;;5.10;3.17;;;;;;;9.94;100.00;101170.31;2079534;28;20407;-77
2023/01/29 04:38:08;;;;;;;4.72;3.10;;;;;;;9.96;100.00;101179.19;2083232;28;20056;-76
2023/01/29 04:39:43;;;;;;;5.57;3.13;;;;;;;9.94;100.00;101175.59;2087734;28;20056;-77
2023/01/29 04:41:10;;;;;;;5.35;3.10;;;;;;;9.92;100.00;101179.94;2079165;28;20132;-76
2023/01/29 04:42:37;;;;;;;32.95;24.70;;;;;;;9.91;100.00;101183.41;2085894;28;20041;-75
2023/01/29 04:44:05;;;;;;;6.60;4.05;;;;;;;9.90;100.00;101183.41;2078847;28;20049;-76
2023/01/29 04:45:35;;;;;;;4.75;2.88;;;;;;;9.89;100.00;101184.25;2071584;28;20136;-76
2023/01/29 04:47:06;;;;;;;5.60;2.20;;;;;;;9.89;100.00;101184.25;2078559;28;20103;-76
2023/01/29 04:48:35;;;;;;;2.88;2.10;;;;;;;9.89;100.00;101184.25;2079227;28;20049;-76
2023/01/29 04:50:08;;;;;;;4.20;2.25;;;;;;;9.88;100.00;101198.28;2081446;28;20048;-76
2023/01/29 04:51:40;;;;;;;7.75;4.30;;;;;;;9.85;100.00;101192.91;2088351;28;20053;-76
2023/01/29 04:53:09;;;;;;;10.45;5.40;;;;;;;9.84;100.00;101191.16;2087446;28;20047;-77
2023/01/29 04:54:44;;;;;;;12.73;7.47;;;;;;;9.83;100.00;101192.91;2085585;28;20044;-76
2023/01/29 04:56:14;;;;;;;4.97;2.40;;;;;;;9.80;100.00;101184.91;2080284;28;20468;-76
2023/01/29 04:57:46;;;;;;;5.45;1.98;;;;;;;9.78;100.00;101191.00;2088055;28;20135;-76
2023/01/29 04:59:13;;;;;;;3.97;1.77;;;;;;;9.75;100.00;101181.25;2079717;28;20046;-76
2023/01/29 05:00:40;;;;;;;6.30;3.35;;;;;;;9.75;100.00;101178.63;2090619;28;20060;-76
2023/01/29 05:02:02;;;;;;;9.25;5.22;;;;;;;9.75;100.00;101181.25;2089577;28;20056;-76
2023/01/29 05:03:27;;;;;;;10.32;5.43;;;;;;;9.77;100.00;101181.31;2086911;28;20099;-76
2023/01/29 05:04:50;;;;;;;14.52;7.47;;;;;;;9.78;100.00;101185.75;2086585;28;20048;-75
2023/01/29 05:06:16;;;;;;;14.63;7.57;;;;;;;9.78;100.00;101185.75;2087065;28;20146;-76
2023/01/29 05:07:38;;;;;;;13.65;7.22;;;;;;;9.78;100.00;101185.75;2078955;28;20076;-76
2023/01/29 05:09:02;;;;;;;11.98;7.90;;;;;;;9.79;100.00;101190.13;2084143;28;20053;-76
2023/01/29 05:10:25;;;;;;;14.68;9.35;;;;;;;9.77;100.00;101195.41;2086276;28;20064;-76
2023/01/29 05:11:49;;;;;;;11.10;7.20;;;;;;;9.76;100.00;101197.97;2084868;28;20045;-74
2023/01/29 05:13:13;;;;;;;10.23;5.75;;;;;;;9.74;100.00;101197.03;2084401;28;20059;-76
2023/01/29 05:14:37;;;;;;;12.48;7.63;;;;;;;9.72;100.00;101193.47;2087069;28;20121;-76
2023/01/29 05:16:05;;;;;;;11.57;6.38;;;;;;;9.70;100.00;101198.72;2095403;28;20055;-77
2023/01/29 05:17:27;;;;;;;15.55;9.50;;;;;;;9.68;100.00;101196.88;2080789;28;20045;-76
2023/01/29 05:18:49;;;;;;;13.43;8.60;;;;;;;9.65;100.00;101188.91;2086667;28;20090;-76
2023/01/29 05:20:12;;;;;;;13.02;8.48;;;;;;;9.64;100.00;101200.31;2086684;28;20132;-76
2023/01/29 05:21:36;;;;;;;18.05;11.88;;;;;;;9.60;100.00;101200.22;2086549;28;20044;-76
2023/01/29 05:22:57;;;;;;;21.35;12.13;;;;;;;9.57;100.00;101197.50;2086896;28;20060;-75
2023/01/29 05:24:22;;;;;;;17.58;10.85;;;;;;;9.58;100.00;101199.25;2094733;28;20052;-76
2023/01/29 05:25:45;;;;;;;17.77;11.27;;;;;;;9.57;100.00;101200.16;2088706;28;20044;-77
2023/01/29 05:28:55;;;;;;;21.10;12.88;;;;;;;9.59;100.00;101203.69;2089171;28;20045;-76
2023/01/29 05:30:17;;;;;;;22.38;13.80;;;;;;;9.60;100.00;101200.22;2080963;28;20085;-77
2023/01/29 05:31:38;;;;;;;24.35;15.00;;;;;;;9.63;100.00;101201.16;2078337;28;20083;-76
2023/01/29 05:33:01;;;;;;;32.42;19.40;;;;;;;9.64;100.00;101198.56;2080863;28;20532;-76
2023/01/29 05:34:23;;;;;;;32.22;20.27;;;;;;;9.65;100.00;101202.09;2086473;28;20104;-76
2023/01/29 05:35:46;;;;;;;33.55;21.10;;;;;;;9.65;100.00;101204.72;2080600;28;20041;-76
2023/01/29 05:37:09;;;;;;;39.40;24.15;;;;;;;9.68;100.00;101212.69;2078407;28;20057;-76
2023/01/29 05:38:32;;;;;;;44.90;29.83;;;;;;;9.72;100.00;101217.19;2086256;28;20037;-76
2023/01/29 05:39:53;;;;;;;46.58;31.33;;;;;;;9.74;100.00;101212.84;2085527;28;20053;-76
2023/01/29 05:41:16;;;;;;;48.92;33.65;;;;;;;9.76;100.00;101205.88;2084584;28;20064;-76
2023/01/29 05:42:37;;;;;;;44.80;32.67;;;;;;;9.78;100.00;101207.69;2081561;28;20119;-76
2023/01/29 05:43:59;;;;;;;26.67;18.75;;;;;;;9.79;100.00;101208.59;2085867;28;20037;-76
2023/01/29 05:45:22;;;;;;;24.88;17.70;;;;;;;9.78;100.00;101209.47;2084790;28;20505;-75
2023/01/29 05:46:43;;;;;;;21.67;16.20;;;;;;;9.77;100.00;101208.56;2079226;28;20103;-76
2023/01/29 05:48:06;;;;;;;18.77;14.20;;;;;;;9.77;100.00;101205.03;2091902;28;20121;-76
2023/01/29 05:49:28;;;;;;;16.15;12.50;;;;;;;9.78;100.00;101204.19;2083571;28;20091;-75
2023/01/29 05:50:50;;;;;;;29.33;23.77;;;;;;;9.79;100.00;101206.84;2091112;28;20040;-76
2023/01/29 05:52:13;;;;;;;34.17;28.35;;;;;;;9.80;100.00;101211.28;2081775;28;20036;-77
2023/01/29 05:53:36;;;;;;;51.42;42.70;;;;;;;9.80;100.00;101206.00;2092301;28;20071;-76
2023/01/29 05:54:57;;;;;;;59.13;48.80;;;;;;;9.82;100.00;101204.31;2081969;28;20658;-76
2023/01/29 05:56:19;;;;;;;64.10;50.90;;;;;;;9.82;100.00;101201.66;2080775;28;20048;-76
2023/01/29 05:57:42;;;;;;;85.35;67.57;;;;;;;9.85;100.00;101198.19;2079713;28;20056;-76
2023/01/29 05:59:04;;;;;;;112.97;86.72;;;;;;;9.89;100.00;101202.72;2079109;28;20042;-76
2023/01/29 06:00:25;;;;;;;120.45;96.07;;;;;;;9.93;100.00;101204.56;2085966;28;20036;-76
2023/01/29 06:01:48;;;;;;;126.07;98.85;;;;;;;9.95;100.00;101205.50;2086352;28;20041;-76
2023/01/29 06:03:10;;;;;;;106.82;82.85;;;;;;;9.97;100.00;101209.06;2076883;28;20041;-76
2023/01/29 06:04:32;;;;;;;76.53;61.72;;;;;;;10.00;100.00;101201.22;2081851;28;20045;-76
2023/01/29 06:05:54;;;;;;;60.80;47.72;;;;;;;10.03;100.00;101205.69;2079647;28;20111;-76
2023/01/29 06:07:18;;;;;;;34.67;27.73;;;;;;;10.06;100.00;101200.47;2080582;28;20049;-76
2023/01/29 06:08:40;;;;;;;42.53;33.33;;;;;;;10.10;100.00;101197.97;2086949;28;20049;-75
2023/01/29 06:10:02;;;;;;;67.07;53.45;;;;;;;10.22;100.00;101198.31;2072159;28;20046;-76
2023/01/29 06:11:23;;;;;;;83.50;64.70;;;;;;;10.35;100.00;101202.13;2077681;28;20038;-75
2023/01/29 06:12:46;;;;;;;65.40;51.67;;;;;;;10.47;100.00;101202.41;2085024;28;20793;-76
2023/01/29 06:14:08;;;;;;;68.20;54.13;;;;;;;10.59;100.00;101212.34;2086138;28;20041;-77
2023/01/29 06:15:29;;;;;;;40.05;30.75;;;;;;;10.73;100.00;101210.91;2084018;28;20473;-75
2023/01/29 06:16:52;;;;;;;40.88;31.05;;;;;;;10.85;100.00;101207.63;2081014;28;20111;-76
2023/01/29 06:18:13;;;;;;;37.40;30.55;;;;;;;10.99;100.00;101207.06;2081619;28;20037;-76
2023/01/29 06:19:36;;;;;;;39.17;32.35;;;;;;;11.16;100.00;101207.41;2083924;28;20041;-76
2023/01/29 06:21:01;;;;;;;39.00;31.75;;;;;;;11.30;100.00;101207.69;2085288;28;20061;-77
2023/01/29 06:22:25;;;;;;;47.90;40.40;;;;;;;11.43;100.00;101207.94;2084834;28;20050;-76
2023/01/29 06:23:47;;;;;;;48.72;43.47;;;;;;;11.57;100.00;101216.16;2080534;28;20054;-76
2023/01/29 06:25:10;;;;;;;55.42;49.42;;;;;;;11.71;100.00;101209.38;2074916;28;20045;-76
2023/01/29 06:26:32;;;;;;;61.13;54.45;;;;;;;11.85;100.00;101210.53;2081290;28;20099;-76
2023/01/29 06:27:53;;;;;;;63.63;55.75;;;;;;;11.99;100.00;101208.13;2080824;28;20041;-77
2023/01/29 06:29:16;;;;;;;48.15;42.92;;;;;;;12.14;100.00;101218.09;2081012;28;20492;-77
2023/01/29 06:30:37;;;;;;;42.55;37.35;;;;;;;12.28;100.00;101208.59;2081096;28;20374;-75
2023/01/29 06:31:59;;;;;;;36.85;30.02;;;;;;;12.42;100.00;101201.75;2085884;28;20497;-76
2023/01/29 06:33:20;;;;;;;23.17;18.70;;;;;;;12.54;100.00;101201.94;2085371;28;20040;-76
2023/01/29 06:34:43;;;;;;;25.58;21.65;;;;;;;12.64;100.00;101214.47;2090318;28;20063;-75
2023/01/29 06:36:05;;;;;;;14.90;10.48;;;;;;;12.73;100.00;101206.63;2085458;28;20049;-76
2023/01/29 06:37:29;;;;;;;15.85;11.68;;;;;;;12.80;100.00;101199.66;2094191;28;20048;-75
2023/01/29 06:38:50;;;;;;;9.48;5.97;;;;;;;12.84;100.00;101201.50;2083640;28;20404;-76
2023/01/29 06:40:13;;;;;;;8.13;5.35;;;;;;;12.89;100.00;101198.88;2081203;28;20490;-76
2023/01/29 06:41:36;;;;;;;12.80;7.45;;;;;;;12.96;100.00;101200.75;2074986;28;20403;-77
2023/01/29 06:42:59;;;;;;;9.38;6.07;;;;;;;13.05;100.00;101190.28;2086645;28;20403;-76
2023/01/29 06:44:22;;;;;;;6.05;3.63;;;;;;;13.15;100.00;101189.53;2077955;28;20050;-77
2023/01/29 06:45:49;;;;;;;4.45;2.42;;;;;;;13.24;100.00;101187.00;2087518;28;20045;-76
2023/01/29 06:47:11;;;;;;;5.63;3.30;;;;;;;13.34;100.00;101182.69;2087474;28;20045;-76
2023/01/29 06:48:33;;;;;;;9.02;3.47;;;;;;;13.46;100.00;101183.69;2075467;28;20281;-77
2023/01/29 06:49:55;;;;;;;5.75;3.00;;;;;;;13.55;100.00;101178.50;2082115;28;20745;-76
2023/01/29 06:51:17;;;;;;;5.65;3.00;;;;;;;13.63;100.00;101183.88;2081781;28;20044;-76
2023/01/29 06:52:41;;;;;;;6.10;3.65;;;;;;;13.72;100.00;101180.44;2083407;28;20049;-76
2023/01/29 06:54:07;;;;;;;6.57;3.17;;;;;;;13.80;100.00;101187.56;2089749;28;20485;-74
2023/01/29 06:55:29;;;;;;;7.13;3.40;;;;;;;13.89;100.00;101185.03;2085221;28;20072;-76
2023/01/29 06:56:52;;;;;;;7.28;3.33;;;;;;;14.00;100.00;101192.16;2084888;28;20531;-77